Time;durP1;ratioP1;P1;durP2;ratioP2;P2;SDS_P1;SDS_P2;PMS_P1;PMS_P2;Temp;Humidity;BMP_temperature;BMP_pressure;BME280_temperature;BME280_humidity;BME280_pressure;Samples;Min_cycle;Max_cycle;Signal;HPM_P1;HPM_P2
2023/09/15 00:00:44;;;;;;;6.50;2.75;;;11.30;99.90;;;;;;5055108;28;20045;-86
2023/09/15 00:03:11;;;;;;;3.95;2.50;;;11.30;99.90;;;;;;5055378;28;20074;-87
2023/09/15 00:05:37;;;;;;;4.72;2.63;;;11.30;99.90;;;;;;5058711;28;20481;-86
2023/09/15 00:08:04;;;;;;;5.68;3.08;;;11.20;99.90;;;;;;5054603;28;20037;-86
2023/09/15 00:10:39;;;;;;;6.25;2.80;;;11.20;99.90;;;;;;5063346;28;20079;-87
2023/09/15 00:13:05;;;;;;;3.60;2.42;;;11.20;99.90;;;;;;5055723;28;20439;-87
2023/09/15 00:15:32;;;;;;;5.25;2.83;;;11.20;99.90;;;;;;5073404;28;20581;-86
2023/09/15 00:17:58;;;;;;;5.53;2.40;;;11.10;99.90;;;;;;5056931;28;20122;-86
2023/09/15 00:20:25;;;;;;;5.47;2.70;;;11.10;99.90;;;;;;5063721;28;20043;-86
2023/09/15 00:22:55;;;;;;;8.88;2.80;;;11.10;99.90;;;;;;5070144;28;20073;-86
2023/09/15 00:25:26;;;;;;;5.32;2.63;;;11.00;99.90;;;;;;5064217;28;20040;-86
2023/09/15 00:27:55;;;;;;;7.85;3.10;;;11.00;99.90;;;;;;5076892;28;20535;-86
2023/09/15 00:30:21;;;;;;;7.07;3.05;;;11.00;99.90;;;;;;5055219;28;20059;-87
2023/09/15 00:32:48;;;;;;;9.80;2.60;;;11.00;99.90;;;;;;5077055;28;20040;-87
2023/09/15 00:35:20;;;;;;;6.55;2.80;;;10.90;99.90;;;;;;5056432;28;20165;-86
2023/09/15 00:37:46;;;;;;;5.22;3.03;;;10.90;99.90;;;;;;5058769;28;20147;-86
2023/09/15 00:40:14;;;;;;;7.15;2.90;;;10.90;99.90;;;;;;5058200;28;20067;-86
2023/09/15 00:42:42;;;;;;;6.47;2.97;;;10.90;99.90;;;;;;5067251;28;20300;-86
2023/09/15 00:45:13;;;;;;;5.93;3.20;;;10.90;99.90;;;;;;5085180;28;20055;-86
2023/09/15 00:47:39;;;;;;;5.57;2.97;;;10.90;99.90;;;;;;5079406;28;20443;-87
2023/09/15 00:50:05;;;;;;;7.45;2.72;;;10.80;99.90;;;;;;5073361;28;20079;-86
2023/09/15 00:52:33;;;;;;;7.18;2.90;;;10.80;99.90;;;;;;5076414;28;20646;-86
2023/09/15 00:55:00;;;;;;;6.90;3.35;;;10.80;99.90;;;;;;5091958;28;20509;-86
2023/09/15 00:57:27;;;;;;;6.10;3.08;;;10.70;99.90;;;;;;5091637;28;20108;-87
2023/09/15 00:59:53;;;;;;;4.78;2.90;;;10.70;99.90;;;;;;5093128;28;20488;-87
2023/09/15 01:02:19;;;;;;;8.68;2.83;;;10.70;99.90;;;;;;5088187;28;20032;-86
2023/09/15 01:04:45;;;;;;;6.93;3.00;;;10.70;99.90;;;;;;5083447;28;20490;-86
2023/09/15 01:07:12;;;;;;;5.45;2.90;;;10.70;99.90;;;;;;5087264;28;20062;-86
2023/09/15 01:09:39;;;;;;;8.52;3.42;;;10.60;99.90;;;;;;5094692;28;20816;-86
2023/09/15 01:12:07;;;;;;;8.95;3.08;;;10.60;99.90;;;;;;5094228;28;20044;-86
2023/09/15 01:14:34;;;;;;;5.80;2.92;;;10.60;99.90;;;;;;5081361;28;20452;-86
2023/09/15 01:17:15;;;;;;;7.60;3.38;;;10.50;99.90;;;;;;5087090;28;20059;-86
2023/09/15 01:19:57;;;;;;;5.50;3.00;;;10.50;99.90;;;;;;5074535;28;20040;-86
2023/09/15 01:22:35;;;;;;;7.13;3.05;;;10.50;99.90;;;;;;5078524;28;20044;-86
2023/09/15 01:25:14;;;;;;;7.65;3.10;;;10.50;99.90;;;;;;5077121;28;20043;-86
2023/09/15 01:27:54;;;;;;;8.27;3.28;;;10.40;99.90;;;;;;5095959;28;20530;-86
2023/09/15 01:30:23;;;;;;;5.70;3.40;;;10.40;99.90;;;;;;5091381;28;20115;-85
2023/09/15 01:32:52;;;;;;;10.00;3.40;;;10.30;99.90;;;;;;5079697;28;20039;-86
2023/09/15 01:35:18;;;;;;;6.75;3.20;;;10.40;99.90;;;;;;5079105;28;20036;-86
2023/09/15 01:37:44;;;;;;;6.90;3.10;;;10.30;99.90;;;;;;5080282;28;20092;-86
2023/09/15 01:40:10;;;;;;;6.45;3.03;;;10.40;99.90;;;;;;5098181;28;20092;-86
2023/09/15 01:42:42;;;;;;;5.60;3.10;;;10.30;99.90;;;;;;5069735;28;20118;-86
2023/09/15 01:45:09;;;;;;;6.68;3.33;;;10.30;99.90;;;;;;5090989;28;20101;-86
2023/09/15 01:47:35;;;;;;;7.25;3.05;;;10.30;99.90;;;;;;5075118;28;20096;-86
2023/09/15 01:50:02;;;;;;;5.65;3.40;;;10.30;99.90;;;;;;5080576;28;20031;-85
2023/09/15 01:52:28;;;;;;;9.25;3.38;;;10.20;99.90;;;;;;5075349;28;20035;-86
2023/09/15 01:54:56;;;;;;;4.93;3.13;;;10.20;99.90;;;;;;5090460;28;20499;-86
2023/09/15 01:57:22;;;;;;;6.25;3.50;;;10.20;99.90;;;;;;5089831;28;20044;-85
2023/09/15 01:59:48;;;;;;;6.00;3.10;;;10.20;99.90;;;;;;5076905;28;20481;-86
2023/09/15 02:02:14;;;;;;;7.68;3.47;;;10.10;99.90;;;;;;5072972;28;20040;-86
2023/09/15 02:04:40;;;;;;;5.07;3.72;;;10.10;99.90;;;;;;5080194;28;20073;-86
2023/09/15 02:07:07;;;;;;;8.40;3.40;;;10.10;99.90;;;;;;5087961;28;20043;-86
2023/09/15 02:09:32;;;;;;;6.53;3.55;;;10.10;99.90;;;;;;5090792;28;20115;-85
2023/09/15 02:11:58;;;;;;;7.80;3.63;;;10.00;99.90;;;;;;5087648;28;20500;-86
2023/09/15 02:14:25;;;;;;;4.47;3.33;;;10.00;99.90;;;;;;5088994;28;20038;-86
2023/09/15 02:16:51;;;;;;;8.32;3.67;;;10.00;99.90;;;;;;5088283;28;20141;-85
2023/09/15 02:19:18;;;;;;;7.28;3.97;;;10.00;99.90;;;;;;5093227;28;20066;-86
2023/09/15 02:21:44;;;;;;;9.52;3.55;;;10.00;99.90;;;;;;5081425;28;20063;-86
2023/09/15 02:24:10;;;;;;;8.93;4.07;;;10.00;99.90;;;;;;5089411;28;20100;-86
2023/09/15 02:26:36;;;;;;;6.47;2.90;;;9.90;99.90;;;;;;5090853;28;20040;-85
2023/09/15 02:29:02;;;;;;;5.18;3.15;;;10.00;99.90;;;;;;5095125;28;20043;-86
2023/09/15 02:31:30;;;;;;;6.53;3.28;;;9.90;99.90;;;;;;5087159;28;20062;-86
2023/09/15 02:33:59;;;;;;;5.90;3.97;;;9.90;99.90;;;;;;5082908;28;20032;-86
2023/09/15 02:36:25;;;;;;;7.18;3.30;;;9.90;99.90;;;;;;5081866;28;20224;-86
2023/09/15 02:38:54;;;;;;;8.23;3.60;;;9.80;99.90;;;;;;5080342;28;20445;-86
2023/09/15 02:41:20;;;;;;;5.20;3.33;;;9.80;99.90;;;;;;5092575;28;20047;-86
2023/09/15 02:43:46;;;;;;;7.90;3.58;;;9.80;99.90;;;;;;5077206;28;20078;-86
2023/09/15 02:46:15;;;;;;;8.20;3.67;;;9.80;99.90;;;;;;5063445;28;20071;-86
2023/09/15 02:48:42;;;;;;;6.97;3.75;;;9.80;99.90;;;;;;5062739;28;20330;-86
2023/09/15 02:51:07;;;;;;;5.55;3.28;;;9.80;99.90;;;;;;5062493;28;20036;-86
2023/09/15 02:53:33;;;;;;;6.82;3.58;;;9.70;99.90;;;;;;5062952;28;20044;-86
2023/09/15 02:56:01;;;;;;;5.88;3.60;;;9.70;99.90;;;;;;5057407;28;20036;-87
2023/09/15 02:58:27;;;;;;;7.93;3.45;;;9.70;99.90;;;;;;5057685;28;20051;-86
2023/09/15 03:00:53;;;;;;;8.30;3.80;;;9.70;99.90;;;;;;5059772;28;20056;-86
2023/09/15 03:03:23;;;;;;;8.25;3.40;;;9.70;99.90;;;;;;5073632;28;20497;-86
2023/09/15 03:05:49;;;;;;;6.53;3.47;;;9.70;99.90;;;;;;5060279;28;20037;-86
2023/09/15 03:08:14;;;;;;;4.47;3.40;;;9.60;99.90;;;;;;5075681;28;20044;-86
2023/09/15 03:10:40;;;;;;;6.70;3.63;;;9.60;99.90;;;;;;5059350;28;20032;-85
2023/09/15 03:13:06;;;;;;;7.28;3.53;;;9.60;99.90;;;;;;5072839;28;20044;-85
2023/09/15 03:15:33;;;;;;;6.18;3.83;;;9.60;99.90;;;;;;5057539;28;20120;-86
2023/09/15 03:17:58;;;;;;;7.50;4.00;;;9.60;99.90;;;;;;5064389;28;20365;-85
2023/09/15 03:20:24;;;;;;;5.22;3.50;;;9.60;99.90;;;;;;5076351;28;20048;-86
2023/09/15 03:22:51;;;;;;;6.85;3.67;;;9.60;99.90;;;;;;5062521;28;20485;-86
2023/09/15 03:25:17;;;;;;;6.50;3.58;;;9.50;99.90;;;;;;5058211;28;20505;-85
2023/09/15 03:27:43;;;;;;;5.20;3.28;;;9.50;99.90;;;;;;5060438;28;20115;-86
2023/09/15 03:30:12;;;;;;;7.50;3.72;;;9.50;99.90;;;;;;5060694;28;20036;-86
2023/09/15 03:32:38;;;;;;;8.95;3.90;;;9.50;99.90;;;;;;5058818;28;20520;-86
2023/09/15 03:35:06;;;;;;;4.95;3.45;;;9.50;99.90;;;;;;5061514;28;20040;-86
2023/09/15 03:37:32;;;;;;;7.53;3.80;;;9.50;99.90;;;;;;5075462;28;20044;-86
2023/09/15 03:39:59;;;;;;;6.53;3.70;;;9.40;99.90;;;;;;5058659;28;20146;-85
2023/09/15 03:42:24;;;;;;;7.57;4.05;;;9.50;99.90;;;;;;5069544;28;20032;-85
2023/09/15 03:44:50;;;;;;;7.63;3.85;;;9.40;99.90;;;;;;5071965;28;20048;-85
2023/09/15 03:47:16;;;;;;;7.43;3.75;;;9.40;99.90;;;;;;5071059;28;20515;-85
2023/09/15 03:49:41;;;;;;;7.78;3.60;;;9.40;99.90;;;;;;5064131;28;20071;-85
2023/09/15 03:52:08;;;;;;;6.18;3.90;;;9.30;99.90;;;;;;5054395;28;20036;-86
2023/09/15 03:54:33;;;;;;;6.90;3.78;;;9.30;99.90;;;;;;5059894;28;20499;-85
2023/09/15 03:56:59;;;;;;;5.18;3.75;;;9.30;99.90;;;;;;5070448;28;20032;-85
2023/09/15 03:59:25;;;;;;;9.30;4.22;;;9.30;99.90;;;;;;5063242;28;20389;-85
2023/09/15 04:01:50;;;;;;;9.65;4.68;;;9.30;99.90;;;;;;5062624;28;20040;-85
2023/09/15 04:04:16;;;;;;;7.53;4.20;;;9.30;99.90;;;;;;5061732;28;20090;-85
2023/09/15 04:06:41;;;;;;;9.93;4.38;;;9.30;99.90;;;;;;5062005;28;20048;-85
2023/09/15 04:09:12;;;;;;;7.28;3.97;;;9.30;99.90;;;;;;5080253;28;20036;-86
2023/09/15 04:11:38;;;;;;;7.25;4.00;;;9.20;99.90;;;;;;5059786;28;20079;-85
2023/09/15 04:14:04;;;;;;;6.63;4.30;;;9.20;99.90;;;;;;5055771;28;20086;-85
2023/09/15 04:16:30;;;;;;;10.25;4.50;;;9.20;99.90;;;;;;5056324;28;20033;-86
2023/09/15 04:18:56;;;;;;;8.15;4.10;;;9.20;99.90;;;;;;5071599;28;20044;-85
2023/09/15 04:21:22;;;;;;;7.28;4.82;;;9.20;99.90;;;;;;5071726;28;20036;-85
2023/09/15 04:23:48;;;;;;;8.55;4.57;;;9.10;99.90;;;;;;5065143;28;20066;-85
2023/09/15 04:26:14;;;;;;;6.53;4.13;;;9.10;99.90;;;;;;5054574;28;20040;-84
2023/09/15 04:28:39;;;;;;;8.88;4.38;;;9.10;99.90;;;;;;5054472;28;20044;-85
2023/09/15 04:31:05;;;;;;;8.18;4.15;;;9.00;99.90;;;;;;5060886;28;20040;-85
2023/09/15 04:33:31;;;;;;;8.73;4.22;;;9.00;99.90;;;;;;5059152;28;20033;-85
2023/09/15 04:35:56;;;;;;;4.93;4.00;;;9.00;99.90;;;;;;5076135;28;20068;-85
2023/09/15 04:38:23;;;;;;;7.25;3.97;;;9.00;99.90;;;;;;5052150;28;20447;-85
2023/09/15 04:40:49;;;;;;;7.50;4.63;;;9.00;99.90;;;;;;5055957;28;20046;-85
2023/09/15 04:43:17;;;;;;;5.50;4.45;;;9.00;99.90;;;;;;5062260;28;20044;-85
2023/09/15 04:45:43;;;;;;;8.35;4.80;;;9.00;99.90;;;;;;5058903;28;20151;-85
2023/09/15 04:48:09;;;;;;;8.80;4.60;;;9.00;99.90;;;;;;5078400;28;20035;-86
2023/09/15 04:50:36;;;;;;;9.10;4.85;;;9.00;99.90;;;;;;5058464;28;20036;-85
2023/09/15 04:53:07;;;;;;;7.53;4.45;;;9.00;99.90;;;;;;5074606;28;20040;-85
2023/09/15 04:55:33;;;;;;;6.43;4.95;;;9.00;99.90;;;;;;5073861;28;20044;-85
2023/09/15 04:57:59;;;;;;;6.53;4.78;;;9.00;99.90;;;;;;5074793;28;20119;-86
2023/09/15 05:00:29;;;;;;;8.73;4.95;;;9.00;99.90;;;;;;5061009;28;20135;-85
2023/09/15 05:02:56;;;;;;;9.60;5.25;;;9.00;99.90;;;;;;5075728;28;20035;-85
2023/09/15 05:05:22;;;;;;;8.73;5.28;;;8.90;99.90;;;;;;5062036;28;20509;-85
2023/09/15 05:07:50;;;;;;;8.93;5.07;;;9.00;99.90;;;;;;5062238;28;20077;-85
2023/09/15 05:10:16;;;;;;;6.90;4.70;;;8.90;99.90;;;;;;5063128;28;20044;-85
2023/09/15 05:12:42;;;;;;;10.27;4.68;;;8.90;99.90;;;;;;5070971;28;20279;-85
2023/09/15 05:15:08;;;;;;;7.40;4.88;;;8.90;99.90;;;;;;5060986;28;20127;-85
2023/09/15 05:17:34;;;;;;;10.55;5.07;;;8.90;99.90;;;;;;5063062;28;20067;-85
2023/09/15 05:19:59;;;;;;;8.38;5.18;;;8.90;99.90;;;;;;5062755;28;20123;-85
2023/09/15 05:22:25;;;;;;;8.45;4.93;;;8.90;99.90;;;;;;5067820;28;20035;-85
2023/09/15 05:24:50;;;;;;;6.60;4.57;;;8.90;99.90;;;;;;5072063;28;20167;-85
2023/09/15 05:27:16;;;;;;;8.60;5.13;;;9.00;99.90;;;;;;5058267;28;20036;-85
2023/09/15 05:29:43;;;;;;;7.50;4.63;;;9.00;99.90;;;;;;5077671;28;20039;-86
2023/09/15 05:32:09;;;;;;;8.55;5.03;;;9.00;99.90;;;;;;5060056;28;20040;-85
2023/09/15 05:34:34;;;;;;;9.10;5.28;;;9.00;99.90;;;;;;5063161;28;20039;-85
2023/09/15 05:37:00;;;;;;;10.80;5.22;;;9.00;99.90;;;;;;5058083;28;20044;-85
2023/09/15 05:39:26;;;;;;;7.82;5.60;;;9.10;99.90;;;;;;5061257;28;20059;-85
2023/09/15 05:41:51;;;;;;;8.63;5.32;;;9.20;99.90;;;;;;5055577;28;20036;-84
2023/09/15 05:44:17;;;;;;;8.50;4.90;;;9.20;99.90;;;;;;5062278;28;20420;-85
2023/09/15 05:46:43;;;;;;;11.63;5.40;;;9.20;99.90;;;;;;5051131;28;20274;-85
2023/09/15 05:49:09;;;;;;;9.25;5.20;;;9.30;99.90;;;;;;5054760;28;20043;-85
2023/09/15 05:51:34;;;;;;;7.65;5.68;;;9.40;99.90;;;;;;5066483;28;20543;-85
2023/09/15 05:54:00;;;;;;;8.50;5.25;;;9.50;99.90;;;;;;5053745;28;20086;-84
2023/09/15 05:56:26;;;;;;;8.60;5.45;;;9.50;99.90;;;;;;5053159;28;20039;-85
2023/09/15 05:58:51;;;;;;;9.15;5.78;;;9.50;99.90;;;;;;5058986;28;20466;-85
2023/09/15 06:01:20;;;;;;;10.05;5.78;;;9.60;99.90;;;;;;5054015;28;20140;-85
2023/09/15 06:03:48;;;;;;;8.70;5.85;;;9.70;99.90;;;;;;5053136;28;20141;-85
2023/09/15 06:06:16;;;;;;;8.50;5.97;;;9.80;99.90;;;;;;5069620;28;20558;-85
2023/09/15 06:08:41;;;;;;;10.13;6.43;;;9.90;99.90;;;;;;5071662;28;20036;-85
2023/09/15 06:11:07;;;;;;;7.32;6.03;;;9.90;99.90;;;;;;5051592;28;20100;-85
2023/09/15 06:13:34;;;;;;;14.75;6.22;;;10.00;99.90;;;;;;5059873;28;20043;-85
2023/09/15 06:16:00;;;;;;;11.32;5.97;;;10.10;99.90;;;;;;5050933;28;20044;-85
2023/09/15 06:18:25;;;;;;;10.15;5.88;;;10.20;99.90;;;;;;5062619;28;20415;-84
2023/09/15 06:20:55;;;;;;;8.82;5.97;;;10.30;99.90;;;;;;5060541;28;20036;-85
2023/09/15 06:23:21;;;;;;;8.65;6.20;;;10.40;99.90;;;;;;5069405;28;20127;-85
2023/09/15 06:25:50;;;;;;;8.95;5.82;;;10.50;99.90;;;;;;5071480;28;20054;-85
2023/09/15 06:28:16;;;;;;;10.00;6.18;;;10.60;99.90;;;;;;5060851;28;20032;-85
2023/09/15 06:30:42;;;;;;;7.70;5.85;;;10.70;99.90;;;;;;5065129;28;20040;-86
2023/09/15 06:33:08;;;;;;;9.85;6.10;;;10.80;99.90;;;;;;5061895;28;20048;-85
2023/09/15 06:35:34;;;;;;;9.35;6.13;;;10.90;99.90;;;;;;5059852;28;20109;-85
2023/09/15 06:38:00;;;;;;;9.32;6.53;;;10.80;99.90;;;;;;5063213;28;20032;-84
2023/09/15 06:40:26;;;;;;;9.20;6.07;;;11.00;99.90;;;;;;5073644;28;20040;-85
2023/09/15 06:42:52;;;;;;;10.48;6.10;;;11.10;99.90;;;;;;5074396;28;20062;-85
2023/09/15 06:45:18;;;;;;;9.63;5.75;;;11.20;99.90;;;;;;5091495;28;20043;-85
2023/09/15 06:47:43;;;;;;;11.50;6.60;;;11.30;99.90;;;;;;5093877;28;20038;-85
2023/09/15 06:50:09;;;;;;;9.23;6.45;;;11.40;99.90;;;;;;5083644;28;20042;-85
2023/09/15 06:52:35;;;;;;;8.55;6.03;;;11.50;99.90;;;;;;5088881;28;20219;-84
2023/09/15 06:55:03;;;;;;;11.77;6.35;;;11.60;99.90;;;;;;5080794;28;20132;-85
2023/09/15 06:57:28;;;;;;;9.75;5.50;;;11.70;99.90;;;;;;5080041;28;20077;-85
2023/09/15 06:59:54;;;;;;;8.40;6.20;;;11.70;99.90;;;;;;5081758;28;20132;-85
2023/09/15 07:02:20;;;;;;;11.27;6.07;;;11.80;99.90;;;;;;5077656;28;20035;-85
2023/09/15 07:04:45;;;;;;;10.98;5.72;;;11.90;99.90;;;;;;5084103;28;20514;-85
2023/09/15 07:07:11;;;;;;;9.82;6.90;;;12.00;99.90;;;;;;5080397;28;20399;-85
2023/09/15 07:09:37;;;;;;;9.55;5.70;;;12.10;99.90;;;;;;5091638;28;20040;-85
2023/09/15 07:12:04;;;;;;;8.52;5.93;;;12.20;99.90;;;;;;5088612;28;20058;-85
2023/09/15 07:14:29;;;;;;;8.93;5.70;;;12.30;99.90;;;;;;5082901;28;20119;-84
2023/09/15 07:16:55;;;;;;;8.93;5.75;;;12.50;99.90;;;;;;5088912;28;20481;-85
2023/09/15 07:19:21;;;;;;;8.15;5.75;;;12.60;99.90;;;;;;5080174;28;20039;-85
2023/09/15 07:21:47;;;;;;;9.13;5.55;;;12.70;99.90;;;;;;5092401;28;20121;-85
2023/09/15 07:24:13;;;;;;;9.27;5.47;;;12.70;99.90;;;;;;5094487;28;20052;-85
2023/09/15 07:26:38;;;;;;;8.63;5.30;;;12.80;99.90;;;;;;5081205;28;20365;-85
2023/09/15 07:29:05;;;;;;;7.38;5.22;;;13.00;99.90;;;;;;5077669;28;20188;-85
2023/09/15 07:31:35;;;;;;;7.47;4.70;;;13.10;99.90;;;;;;5089649;28;20038;-85
2023/09/15 07:34:01;;;;;;;7.47;5.35;;;13.20;99.90;;;;;;5096205;28;20086;-85
2023/09/15 07:36:29;;;;;;;7.35;4.78;;;13.20;99.90;;;;;;5087786;28;20048;-85
2023/09/15 07:38:55;;;;;;;7.05;4.70;;;13.30;99.90;;;;;;5088088;28;20032;-85
2023/09/15 07:41:21;;;;;;;8.10;4.80;;;13.50;99.90;;;;;;5089665;28;20043;-85
2023/09/15 07:43:47;;;;;;;8.82;4.55;;;13.50;99.90;;;;;;5070879;28;20335;-85
2023/09/15 07:46:15;;;;;;;6.53;4.70;;;13.70;99.90;;;;;;5061353;28;20072;-85
2023/09/15 07:48:44;;;;;;;7.90;4.47;;;13.80;99.90;;;;;;5069221;28;20393;-85
2023/09/15 07:51:11;;;;;;;5.40;4.38;;;13.90;99.90;;;;;;5062564;28;20127;-84
2023/09/15 07:53:37;;;;;;;6.88;4.20;;;14.00;99.90;;;;;;5057837;28;20032;-85
2023/09/15 07:56:03;;;;;;;7.57;4.57;;;14.20;99.90;;;;;;5056534;28;20062;-85
2023/09/15 07:58:28;;;;;;;8.88;3.65;;;14.20;99.90;;;;;;5059924;28;20408;-85
2023/09/15 08:00:57;;;;;;;6.50;4.20;;;14.30;99.90;;;;;;5063181;28;20124;-85
2023/09/15 08:03:23;;;;;;;5.93;3.78;;;14.30;99.90;;;;;;5061964;28;20040;-85
2023/09/15 08:05:51;;;;;;;9.60;4.13;;;14.40;99.90;;;;;;5053144;28;20114;-85
2023/09/15 08:08:17;;;;;;;4.63;3.55;;;14.60;99.90;;;;;;5086394;28;20101;-85
2023/09/15 08:10:45;;;;;;;10.20;3.58;;;14.70;99.90;;;;;;5069924;28;20044;-85
2023/09/15 08:13:10;;;;;;;6.95;3.67;;;14.90;99.90;;;;;;5060300;28;20099;-85
2023/09/15 08:15:36;;;;;;;6.43;3.28;;;14.90;99.90;;;;;;5059093;28;20448;-85
2023/09/15 08:18:03;;;;;;;5.28;3.50;;;15.10;99.90;;;;;;5059743;28;20066;-85
2023/09/15 08:20:28;;;;;;;7.20;3.20;;;15.10;99.90;;;;;;5058746;28;20036;-85
2023/09/15 08:22:54;;;;;;;7.32;3.70;;;15.20;99.90;;;;;;5061591;28;20061;-85
2023/09/15 08:25:20;;;;;;;7.22;3.83;;;15.30;99.90;;;;;;5076545;28;20048;-85
2023/09/15 08:27:46;;;;;;;6.30;3.22;;;15.40;99.90;;;;;;5068785;28;20162;-85
2023/09/15 08:30:13;;;;;;;6.57;3.25;;;15.60;99.90;;;;;;5066027;28;20064;-85
2023/09/15 08:32:39;;;;;;;5.80;3.38;;;15.70;99.90;;;;;;5075203;28;20045;-85
2023/09/15 08:35:05;;;;;;;9.07;3.65;;;15.70;99.90;;;;;;5056590;28;20178;-84
2023/09/15 08:37:31;;;;;;;7.03;2.92;;;15.90;99.90;;;;;;5068684;28;20327;-85
2023/09/15 08:39:59;;;;;;;5.10;3.40;;;16.00;99.90;;;;;;5070415;28;20093;-84
2023/09/15 08:42:29;;;;;;;5.85;3.30;;;16.10;99.90;;;;;;5071803;28;20040;-85
2023/09/15 08:44:56;;;;;;;7.95;3.45;;;16.20;99.90;;;;;;5060342;28;20123;-85
2023/09/15 08:47:25;;;;;;;4.78;2.83;;;16.40;99.90;;;;;;5067518;28;20556;-86
2023/09/15 08:49:52;;;;;;;4.75;2.72;;;16.50;99.90;;;;;;5073513;28;20039;-85
2023/09/15 08:52:18;;;;;;;5.68;3.13;;;16.50;99.90;;;;;;5054412;28;20081;-85
2023/09/15 08:54:45;;;;;;;5.38;2.97;;;16.60;99.90;;;;;;5068282;28;20052;-85
2023/09/15 08:57:11;;;;;;;7.90;2.75;;;16.70;99.90;;;;;;5069622;28;20055;-86
2023/09/15 08:59:38;;;;;;;7.38;2.90;;;16.90;99.90;;;;;;5072121;28;20036;-85
2023/09/15 09:02:05;;;;;;;10.07;3.33;;;17.10;99.90;;;;;;5059001;28;20085;-85
2023/09/15 09:04:30;;;;;;;6.32;2.67;;;17.00;99.90;;;;;;5061863;28;20051;-86
2023/09/15 09:06:59;;;;;;;4.47;2.72;;;17.20;99.90;;;;;;5064614;28;20036;-85
2023/09/15 09:09:25;;;;;;;7.63;2.65;;;17.10;99.90;;;;;;5057990;28;20043;-85
2023/09/15 09:11:51;;;;;;;4.97;2.85;;;17.30;99.90;;;;;;5067927;28;20375;-86
2023/09/15 09:14:16;;;;;;;5.80;2.67;;;17.30;99.90;;;;;;5059729;28;20043;-86
2023/09/15 09:16:47;;;;;;;9.05;3.08;;;17.40;99.90;;;;;;5065590;28;20032;-86
2023/09/15 09:19:12;;;;;;;6.53;2.75;;;17.50;99.90;;;;;;5057481;28;20119;-86
2023/09/15 09:21:39;;;;;;;5.18;2.28;;;17.60;99.90;;;;;;5060369;28;20127;-85
2023/09/15 09:24:05;;;;;;;8.73;2.70;;;17.70;99.90;;;;;;5056425;28;20500;-85
2023/09/15 09:26:31;;;;;;;5.40;2.65;;;17.80;99.90;;;;;;5060283;28;20040;-86
2023/09/15 09:28:57;;;;;;;4.28;2.33;;;17.80;99.90;;;;;;5056675;28;20089;-86
2023/09/15 09:31:27;;;;;;;4.45;2.60;;;17.90;99.90;;;;;;5067188;28;20043;-86
2023/09/15 09:33:58;;;;;;;4.68;2.60;;;18.10;99.90;;;;;;5058603;28;20496;-85
2023/09/15 09:36:24;;;;;;;4.93;2.63;;;18.10;99.90;;;;;;5055833;28;20048;-85
2023/09/15 09:38:51;;;;;;;6.32;2.60;;;18.40;99.90;;;;;;5059078;28;20113;-86
2023/09/15 09:41:22;;;;;;;4.38;2.63;;;18.30;99.90;;;;;;5059729;28;20497;-86
2023/09/15 09:43:49;;;;;;;5.57;2.28;;;18.50;99.90;;;;;;5069141;28;20543;-85
2023/09/15 09:46:21;;;;;;;6.25;2.78;;;18.50;99.90;;;;;;5055913;28;20409;-85
2023/09/15 09:48:49;;;;;;;3.28;2.40;;;18.50;99.90;;;;;;5057561;28;20368;-85
2023/09/15 09:51:17;;;;;;;6.10;2.63;;;18.50;99.90;;;;;;5053709;28;20048;-85
2023/09/15 09:53:43;;;;;;;6.15;2.53;;;18.70;99.90;;;;;;5057368;28;20036;-86
2023/09/15 09:56:08;;;;;;;6.05;3.47;;;18.90;99.90;;;;;;5056730;28;20044;-86
2023/09/15 09:58:36;;;;;;;7.43;3.20;;;19.00;99.90;;;;;;5059221;28;20082;-86
2023/09/15 10:01:04;;;;;;;9.10;3.28;;;18.90;99.90;;;;;;5068859;28;20056;-85
2023/09/15 10:03:30;;;;;;;6.13;3.53;;;19.00;99.90;;;;;;5052935;28;20032;-85
2023/09/15 10:05:57;;;;;;;6.90;3.20;;;19.30;99.90;;;;;;5056259;28;20044;-85
2023/09/15 10:08:23;;;;;;;9.60;3.53;;;19.20;99.90;;;;;;5057220;28;20051;-85
2023/09/15 10:10:50;;;;;;;6.57;3.65;;;19.40;99.90;;;;;;5069572;28;20042;-86
2023/09/15 10:13:16;;;;;;;5.80;3.22;;;19.40;99.90;;;;;;5063198;28;20078;-85
2023/09/15 10:15:43;;;;;;;7.63;3.20;;;19.50;99.90;;;;;;5060043;28;20044;-85
2023/09/15 10:18:12;;;;;;;4.93;2.97;;;19.60;99.90;;;;;;5071891;28;20123;-86
2023/09/15 10:20:41;;;;;;;5.90;2.80;;;19.80;99.90;;;;;;5063456;28;20093;-85
2023/09/15 10:23:07;;;;;;;4.90;2.92;;;19.80;99.90;;;;;;5073217;28;20032;-86
2023/09/15 10:25:48;;;;;;;4.10;2.83;;;19.90;99.90;;;;;;5058357;28;20082;-85
2023/09/15 10:28:14;;;;;;;5.10;3.10;;;20.00;99.90;;;;;;5058827;28;20029;-85
2023/09/15 10:30:42;;;;;;;6.18;3.35;;;20.10;99.90;;;;;;5071614;28;20052;-86
2023/09/15 10:33:11;;;;;;;4.60;2.90;;;20.20;99.90;;;;;;5071697;28;20040;-86
2023/09/15 10:35:43;;;;;;;3.28;2.63;;;20.20;99.90;;;;;;5073763;28;20043;-85
2023/09/15 10:38:09;;;;;;;4.97;2.83;;;20.40;99.90;;;;;;5066662;28;20036;-85
2023/09/15 10:40:48;;;;;;;6.25;2.97;;;20.20;99.90;;;;;;5067527;28;20028;-85
2023/09/15 10:43:17;;;;;;;8.77;2.83;;;20.40;99.90;;;;;;5051785;28;20084;-86
2023/09/15 10:45:57;;;;;;;6.47;2.88;;;20.50;99.90;;;;;;5053747;28;20120;-86
2023/09/15 10:48:24;;;;;;;5.03;2.60;;;20.50;99.90;;;;;;5067912;28;20044;-85
2023/09/15 10:50:49;;;;;;;7.13;2.90;;;20.60;99.90;;;;;;5063913;28;20499;-86
2023/09/15 10:53:17;;;;;;;6.13;2.80;;;20.60;99.90;;;;;;5056766;28;20480;-86
2023/09/15 10:55:43;;;;;;;5.47;2.38;;;20.80;99.90;;;;;;5065129;28;20047;-86
2023/09/15 10:58:09;;;;;;;4.18;2.90;;;20.60;99.90;;;;;;5054807;28;20044;-85
2023/09/15 11:00:35;;;;;;;4.22;2.40;;;20.50;99.90;;;;;;5055073;28;20042;-85
2023/09/15 11:03:03;;;;;;;4.03;2.85;;;20.80;99.90;;;;;;5054118;28;20032;-86
2023/09/15 11:05:29;;;;;;;7.65;2.53;;;21.00;99.90;;;;;;5062563;28;20032;-86
2023/09/15 11:07:56;;;;;;;5.70;2.35;;;21.10;99.90;;;;;;5074718;28;20089;-86
2023/09/15 11:10:32;;;;;;;4.22;2.38;;;21.10;99.90;;;;;;5072439;28;20124;-85
2023/09/15 11:12:59;;;;;;;4.07;2.33;;;21.00;99.90;;;;;;5061535;28;20040;-85
2023/09/15 11:15:25;;;;;;;5.97;2.75;;;20.90;99.90;;;;;;5058569;28;20040;-86
2023/09/15 11:17:51;;;;;;;4.93;2.55;;;21.20;99.90;;;;;;5075425;28;20066;-86
2023/09/15 11:20:17;;;;;;;5.43;2.53;;;21.30;99.90;;;;;;5071777;28;20567;-86
2023/09/15 11:22:43;;;;;;;3.28;2.08;;;21.60;99.90;;;;;;5071292;28;20036;-86
2023/09/15 11:25:10;;;;;;;4.90;2.47;;;21.60;99.90;;;;;;5071637;28;20529;-86
2023/09/15 11:27:36;;;;;;;5.22;2.13;;;21.40;99.90;;;;;;5057187;28;20043;-86
2023/09/15 11:30:04;;;;;;;3.78;2.33;;;21.50;99.90;;;;;;5073907;28;20279;-85
2023/09/15 11:32:31;;;;;;;3.45;2.35;;;21.40;99.90;;;;;;5059041;28;20035;-86
2023/09/15 11:34:57;;;;;;;8.43;2.40;;;21.60;99.90;;;;;;5060771;28;20158;-86
2023/09/15 11:37:23;;;;;;;4.45;2.38;;;21.90;99.90;;;;;;5053093;28;20560;-86
2023/09/15 11:39:52;;;;;;;3.65;2.30;;;22.00;99.90;;;;;;5063183;28;20044;-85
2023/09/15 11:42:18;;;;;;;5.07;2.33;;;22.30;99.90;;;;;;5077904;28;20451;-86
2023/09/15 11:44:44;;;;;;;4.75;2.55;;;22.40;99.90;;;;;;5062258;28;20055;-86
2023/09/15 11:47:11;;;;;;;4.78;3.05;;;22.50;99.90;;;;;;5072129;28;20039;-86
2023/09/15 11:49:36;;;;;;;7.85;2.15;;;22.20;99.90;;;;;;5059400;28;20036;-86
2023/09/15 11:52:03;;;;;;;4.97;2.10;;;22.40;99.90;;;;;;5069771;28;20044;-86
2023/09/15 11:54:30;;;;;;;4.40;2.10;;;22.60;99.90;;;;;;5070686;28;20473;-86
2023/09/15 11:56:56;;;;;;;7.03;2.38;;;22.60;99.90;;;;;;5063934;28;20085;-86
2023/09/15 11:59:23;;;;;;;5.20;2.40;;;22.90;99.90;;;;;;5068862;28;20048;-86
2023/09/15 12:01:52;;;;;;;5.15;1.98;;;22.40;99.90;;;;;;5065801;28;20043;-86
2023/09/15 12:04:18;;;;;;;4.32;2.55;;;22.60;99.90;;;;;;5060768;28;20050;-86
2023/09/15 12:06:45;;;;;;;4.32;1.88;;;22.50;99.90;;;;;;5061874;28;20048;-86
2023/09/15 12:09:12;;;;;;;3.90;2.15;;;22.20;99.90;;;;;;5059912;28;20135;-86
2023/09/15 12:11:47;;;;;;;2.95;2.00;;;22.60;99.90;;;;;;5064438;28;20122;-86
2023/09/15 12:14:13;;;;;;;3.05;2.28;;;23.00;99.90;;;;;;5060505;28;20384;-86
2023/09/15 12:16:42;;;;;;;4.70;2.05;;;23.10;99.90;;;;;;5060182;28;20443;-87
2023/09/15 12:19:10;;;;;;;3.97;2.15;;;22.80;99.90;;;;;;5061979;28;20130;-85
2023/09/15 12:21:36;;;;;;;3.45;2.03;;;23.10;99.90;;;;;;5055205;28;20132;-87
2023/09/15 12:24:11;;;;;;;4.32;2.00;;;23.40;99.90;;;;;;5051442;28;20162;-86
2023/09/15 12:26:39;;;;;;;6.95;2.30;;;23.30;99.90;;;;;;5058464;28;20036;-87
2023/09/15 12:29:04;;;;;;;4.57;2.00;;;23.30;99.90;;;;;;5073176;28;20040;-86
2023/09/15 12:31:40;;;;;;;4.38;2.20;;;23.40;99.90;;;;;;5054927;28;20046;-86
2023/09/15 12:34:06;;;;;;;3.58;2.15;;;23.20;99.90;;;;;;5062662;28;20044;-86
2023/09/15 12:36:32;;;;;;;5.38;2.13;;;23.80;99.90;;;;;;5063499;28;20105;-86
2023/09/15 12:38:57;;;;;;;4.25;2.33;;;23.60;99.90;;;;;;5075310;28;20039;-86
2023/09/15 12:41:23;;;;;;;2.55;1.88;;;23.10;99.90;;;;;;5058719;28;20032;-87
2023/09/15 12:43:52;;;;;;;6.15;2.35;;;23.10;99.90;;;;;;5056847;28;20049;-86
2023/09/15 12:46:18;;;;;;;4.90;2.20;;;23.20;99.90;;;;;;5072822;28;20052;-86